Meteorología y climatología de Navarra
Datos de la estación - Meteo Navarra

Estación de Gorramendi GN

Altitud 1071 m.


Datos desde el 11/01/2019 hasta el 12/01/2019 en horario solar
Los datos son PROVISIONALES

Anterior Página 1 de 1 Siguiente Descargar: Formato para Excel 2000 o superior   Formato csv   Formato para OpenOffice Calc
Fecha Temperatura Humedad relativa Radiación global Insolación Precipitación Velocidad viento 10 m Velocidad viento 10 m Dirección viento 10 m
ºC % W/m² s l/m² m/s km/h º
11/01/2019 0:00 -5.0 96 0.0 0 0.0 8.7 31.3 61
11/01/2019 0:10 -5.0 96 0.0 0 0.0 7.6 27.4 57
11/01/2019 0:20 -5.0 96 0.0 0 0.0 7.9 28.5 62
11/01/2019 0:30 -5.0 96 0.0 0 0.0 7.3 26.3 55
11/01/2019 0:40 -5.0 96 0.0 0 0.0 7.2 25.9 56
11/01/2019 0:50 -5.0 96 0.0 0 0.0 8.9 32.1 59
11/01/2019 1:00 -5.1 96 0.0 0 0.0 8.7 31.3 60
11/01/2019 1:10 -5.2 96 0.0 0 0.0 8.6 31.0 63
11/01/2019 1:20 -5.2 96 0.0 0 0.0 8.6 30.8 58
11/01/2019 1:30 -5.2 96 0.0 0 0.0 8.4 30.1 54
11/01/2019 1:40 -5.1 96 0.0 0 0.0 7.1 25.5 55
11/01/2019 1:50 -5.1 96 0.0 0 0.0 7.1 25.7 53
11/01/2019 2:00 -5.2 96 0.0 0 0.0 7.1 25.6 49
11/01/2019 2:10 -5.1 96 0.0 0 0.0 6.7 24.0 44
11/01/2019 2:20 -5.2 96 0.0 0 0.0 6.5 23.3 40
11/01/2019 2:30 -5.2 96 0.0 0 0.0 6.4 23.1 37
11/01/2019 2:40 -5.3 96 0.0 0 0.0 6.8 24.4 35
11/01/2019 2:50 -5.3 96 0.0 0 0.0 6.6 23.8 35
11/01/2019 3:00 -5.4 96 0.0 0 0.0 6.2 22.2 38
11/01/2019 3:10 -5.5 95 0.0 0 0.0 6.5 23.4 45
11/01/2019 3:20 -5.5 95 0.0 0 0.0 6.9 24.9 40
11/01/2019 3:30 -5.5 95 0.0 0 0.0 7.1 25.7 39
11/01/2019 3:40 -5.6 95 0.0 0 0.0 7.2 25.8 46
11/01/2019 3:50 -5.8 95 0.0 0 0.0 7.9 28.6 47
11/01/2019 4:00 -5.9 95 0.0 0 0.0 8.7 31.4 48
11/01/2019 4:10 -6.0 95 0.0 0 0.0 9.2 33.1 47
11/01/2019 4:20 -6.1 95 0.0 0 0.0 9.0 32.4 44
11/01/2019 4:30 -6.0 95 0.0 0 0.0 8.3 29.7 41
11/01/2019 4:40 -5.9 95 0.0 0 0.0 8.2 29.5 41
11/01/2019 4:50 -5.9 95 0.0 0 0.0 8.0 28.7 39
11/01/2019 5:00 -5.9 95 0.0 0 0.0 7.9 28.5 37
11/01/2019 5:10 -5.8 95 0.0 0 0.0 8.4 30.2 34
11/01/2019 5:20 -5.8 95 0.0 0 0.0 7.8 28.0 32
11/01/2019 5:30 -5.7 95 0.0 0 0.0 7.2 25.8 34
11/01/2019 5:40 -5.7 95 0.0 0 0.0 7.7 27.7 30
11/01/2019 5:50 -5.6 95 0.0 0 0.0 7.8 28.0 28
11/01/2019 6:00 -5.5 96 0.0 0 0.0 7.1 25.4 26
11/01/2019 6:10 -5.5 95 0.0 0 0.0 7.5 26.9 31
11/01/2019 6:20 -5.6 95 0.0 0 0.0 7.3 26.4 33
11/01/2019 6:30 -5.6 95 0.0 0 0.0 7.2 26.0 33
11/01/2019 6:40 -5.5 95 0.0 0 0.0 7.1 25.6 36
11/01/2019 6:50 -5.6 95 0.0 0 0.0 6.7 24.2 38
11/01/2019 7:00 -5.7 95 0.0 0 0.0 6.4 22.9 39
11/01/2019 7:10 -5.7 95 0.0 0 0.0 6.4 23.1 42
11/01/2019 7:20 -5.7 95 0.0 0 0.0 6.6 23.9 41
11/01/2019 7:30 -5.7 95 0.0 0 0.0 7.6 27.5 43
11/01/2019 7:40 -5.6 95 0.0 0 0.0 7.8 27.9 44
11/01/2019 7:50 -5.6 95 0.0 0 0.0 7.7 27.7 45
11/01/2019 8:00 -5.5 95 14.6 0 0.0 6.7 24.2 39
11/01/2019 8:10 -5.5 95 20.2 0 0.0 6.4 23.2 36
11/01/2019 8:20 -5.4 95 22.0 0 0.0 5.7 20.5 40
11/01/2019 8:30 -5.3 96 26.4 0 0.0 6.8 24.5 43
11/01/2019 8:40 -5.1 96 28.4 0 0.0 5.6 20.1 37
11/01/2019 8:50 -5.0 96 35.5 0 0.0 5.7 20.6 34
11/01/2019 9:00 -5.0 96 42.7 0 0.0 5.5 19.9 33
11/01/2019 9:10 -4.9 96 50.8 0 0.0 5.4 19.5 34
11/01/2019 9:20 -4.8 96 49.5 0 0.0 5.4 19.3 30
11/01/2019 9:30 -4.7 96 49.8 0 0.0 4.9 17.7 31
11/01/2019 9:40 -4.7 96 56.2 0 0.0 4.3 15.5 34
11/01/2019 9:50 -4.5 96 64.8 0 0.0 4.0 14.5 31
11/01/2019 10:00 -4.5 96 64.6 0 0.0 3.9 14.1 32
11/01/2019 10:10 -4.6 96 69.0 0 0.0 4.7 16.7 45
11/01/2019 10:20 -4.9 95 73.0 0 0.0 4.5 16.2 43
11/01/2019 10:30 -4.7 96 73.8 0 0.0 4.5 16.3 51
11/01/2019 10:40 -5.2 95 78.3 0 0.0 6.2 22.2 60
11/01/2019 10:50 -5.3 95 86.8 0 0.0 7.1 25.4 62
11/01/2019 11:00 -5.1 95 103.5 0 0.0 7.7 27.8 64
11/01/2019 11:10 -4.9 95 112.0 0 0.0 7.7 27.8 66
11/01/2019 11:20 -4.8 95 112.9 0 0.0 8.7 31.2 69
11/01/2019 11:30 -5.0 94 136.9 0 0.0 8.7 31.4 74
11/01/2019 11:40 -4.9 93 176.3 0 0.0 9.3 33.5 73
11/01/2019 11:50 -4.8 93 210.2 94 0.0 9.7 34.8 70
11/01/2019 12:00 -4.6 91 244.9 290 0.0 9.6 34.6 72
11/01/2019 12:10 -4.6 88 332.5 514 0.0 9.8 35.3 71
11/01/2019 12:20 -4.4 85 400.2 584 0.0 9.7 35.0 70
11/01/2019 12:30 -4.2 82 449.6 600 0.0 9.3 33.6 71
11/01/2019 12:40 -4.1 79 461.8 600 0.0 8.6 30.8 69
11/01/2019 12:50 -4.0 80 456.6 600 0.0 7.5 27.1 65
11/01/2019 13:00 -3.7 78 451.9 600 0.0 7.0 25.3 62
11/01/2019 13:10 -3.7 78 463.7 600 0.0 6.8 24.4 64
11/01/2019 13:20 -3.6 75 513.3 600 0.0 6.5 23.2 63
11/01/2019 13:30 -3.6 75 564.6 600 0.0 7.1 25.7 61
11/01/2019 13:40 -3.5 73 522.6 600 0.0 6.8 24.6 63
11/01/2019 13:50 -3.6 74 466.5 600 0.0 6.8 24.5 58
11/01/2019 14:00 -3.5 76 434.9 600 0.0 4.9 17.5 53
11/01/2019 14:10 -3.5 74 405.7 600 0.0 4.6 16.5 50
11/01/2019 14:20 -3.3 73 376.8 600 0.0 4.9 17.7 63
11/01/2019 14:30 -3.3 74 348.8 600 0.0 5.4 19.3 59
11/01/2019 14:40 -3.4 75 318.9 600 0.0 5.6 20.2 57
11/01/2019 14:50 -3.3 74 291.6 600 0.0 5.5 19.9 63
11/01/2019 15:00 -3.2 75 266.2 600 0.0 5.5 19.7 62
11/01/2019 15:10 -3.2 76 240.4 600 0.0 5.0 18.1 65
11/01/2019 15:20 -3.1 77 213.6 600 0.0 5.0 18.1 65
11/01/2019 15:30 -3.2 76 186.1 600 0.0 4.9 17.8 63
11/01/2019 15:40 -3.1 76 158.0 600 0.0 4.3 15.5 64
11/01/2019 15:50 -3.1 77 130.2 600 0.0 3.5 12.7 60
11/01/2019 16:00 -3.2 74 90.1 510 0.0 4.7 16.8 67
11/01/2019 16:10 -3.2 76 79.0 600 0.0 5.0 18.0 67
11/01/2019 16:20 -3.2 75 56.7 600 0.0 5.8 20.7 73
11/01/2019 16:30 -3.2 78 35.5 470 0.0 6.8 24.6 72
11/01/2019 16:40 -3.3 78 20.9 0 0.0 7.8 27.9 68
11/01/2019 16:50 -3.1 80 2.9 0 0.0 8.1 29.1 67
11/01/2019 17:00 -3.2 81 0.0 0 0.0 8.1 29.2 63
11/01/2019 17:10 -3.2 81 0.0 0 0.0 7.4 26.6 63
11/01/2019 17:20 -3.3 81 0.0 0 0.0 7.0 25.3 66
11/01/2019 17:30 -3.2 79 0.0 0 0.0 7.3 26.1 73
11/01/2019 17:40 -3.3 79 0.0 0 0.0 7.6 27.3 67
11/01/2019 17:50 -3.2 77 0.0 0 0.0 7.4 26.8 70
11/01/2019 18:00 -3.1 76 0.0 0 0.0 7.2 25.8 73
11/01/2019 18:10 -2.9 77 0.0 0 0.0 6.8 24.4 66
11/01/2019 18:20 -2.8 77 0.0 0 0.0 7.4 26.6 61
11/01/2019 18:30 -2.4 83 0.0 0 0.0 9.1 32.7 52
11/01/2019 18:40 -2.3 84 0.0 0 0.0 9.3 33.3 50
11/01/2019 18:50 -2.5 84 0.0 0 0.0 9.4 33.8 52
11/01/2019 19:00 -2.6 82 0.0 0 0.0 9.0 32.3 44
11/01/2019 19:10 -2.8 80 0.0 0 0.0 8.2 29.4 46
11/01/2019 19:20 -2.8 79 0.0 0 0.0 8.3 30.0 48
11/01/2019 19:30 -2.9 79 0.0 0 0.0 8.2 29.6 48
11/01/2019 19:40 -2.8 80 0.0 0 0.0 9.1 32.6 50
11/01/2019 19:50 -2.8 80 0.0 0 0.0 9.0 32.3 50
11/01/2019 20:00 -2.8 81 0.0 0 0.0 9.7 35.0 52
11/01/2019 20:10 -2.8 82 0.0 0 0.0 8.2 29.6 50
11/01/2019 20:20 -2.8 79 0.0 0 0.0 8.4 30.3 48
11/01/2019 20:30 -2.8 77 0.0 0 0.0 9.0 32.5 57
11/01/2019 20:40 -2.6 82 0.0 0 0.0 9.4 33.9 60
11/01/2019 20:50 -2.6 85 0.0 0 0.0 9.3 33.3 56
11/01/2019 21:00 -2.5 89 0.0 0 0.0 10.4 37.6 55
11/01/2019 21:10 -2.4 91 0.0 0 0.0 12.0 43.3 54
11/01/2019 21:20 -2.2 90 0.0 0 0.0 11.8 42.6 60
11/01/2019 21:30 -2.1 89 0.0 0 0.0 12.1 43.4 62
11/01/2019 21:40 -2.0 88 0.0 0 0.0 11.8 42.6 61
11/01/2019 21:50 -2.1 90 0.0 0 0.0 11.5 41.5 60
11/01/2019 22:00 -1.9 92 0.0 0 0.0 11.9 42.7 56
11/01/2019 22:10 -1.8 92 0.0 0 0.0 11.8 42.6 56
11/01/2019 22:20 -1.7 93 0.0 0 0.0 11.9 42.9 52
11/01/2019 22:30 -1.9 93 0.0 0 0.0 11.9 42.8 59
11/01/2019 22:40 -2.3 92 0.0 0 0.0 12.5 44.9 67
11/01/2019 22:50 -2.2 93 0.0 0 0.0 11.9 42.7 66
11/01/2019 23:00 -2.3 92 0.0 0 0.0 10.9 39.4 66
11/01/2019 23:10 -2.4 92 0.0 0 0.0 9.9 35.7 72
11/01/2019 23:20 -2.3 93 0.0 0 0.0 10.3 37.2 73
11/01/2019 23:30 -2.3 93 0.0 0 0.0 10.5 37.8 73
11/01/2019 23:40 -2.2 94 0.0 0 0.0 10.8 38.8 71
11/01/2019 23:50 -2.2 94 0.0 0 0.0 10.6 38.2 76
Anterior Página 1 de 1 Siguiente
Los datos de precipitación registrados en estaciones que están en cumbres son inferiores a lo real, como consecuencia del efecto del viento y de la nieve.


NOTA: Tipo de datos según el color:
   - Valores diarios o 10 minutos correctos
   - Valores diarios calculados a partir de un número de datos 10 minutos menor que 144 y mayor que 120, o de un número de datos semihorarios menor que 48 y mayor que 40 (caso de las estaciones de Riegos de Navarra y del MARM)
   - Valores diez minutos estimados


Contacto        Enlaces        Aviso legal